Terminal Aerodrome Forecast
Issued by NWS

Home | Current Version | Previous Version | Text Only | Print | Product List | Glossary On
Versions: 1 2 3 4 5 6 7 8 9 10 11 12 13
000
FTUS43 KGRR 282300
TAFLAN
TAF
KLAN 282340Z 2900/2924 19006KT P6SM SCT150
     FM291400 19011G18KT P6SM OVC150
     FM291900 20014G24KT P6SM -SHRA BKN060
     FM292200 20015G25KT 5SM -SHRA BR OVC025=

USA.gov is the U.S. government's official web portal to all federal, state and local government web resources and services.